Time;durP1;ratioP1;P1;durP2;ratioP2;P2;SDS_P1;SDS_P2;PMS_P1;PMS_P2;Temp;Humidity;BMP_temperature;BMP_pressure;BME280_temperature;BME280_humidity;BME280_pressure;Samples;Min_cycle;Max_cycle;Signal;HPM_P1;HPM_P2
2022/07/13 00:00:36;;;;;;;2.58;2.30;;;19.00;92.20;;;;;;5049138;28;20033;-50
2022/07/13 00:03:01;;;;;;;2.80;2.50;;;19.00;92.20;;;;;;5048996;28;20453;-48
2022/07/13 00:05:27;;;;;;;2.50;2.30;;;19.00;92.10;;;;;;5048224;28;20425;-48
2022/07/13 00:07:53;;;;;;;3.42;2.30;;;19.00;92.10;;;;;;5035962;28;20045;-49
2022/07/13 00:10:19;;;;;;;4.03;2.35;;;19.00;92.20;;;;;;5029079;28;20043;-48
2022/07/13 00:12:44;;;;;;;2.28;2.08;;;19.00;92.10;;;;;;5028424;28;20038;-49
2022/07/13 00:15:10;;;;;;;2.58;2.10;;;19.00;92.10;;;;;;5028162;28;20049;-49
2022/07/13 00:17:36;;;;;;;3.97;2.17;;;19.00;92.90;;;;;;5029335;28;20033;-48
2022/07/13 00:20:03;;;;;;;4.53;2.25;;;19.00;93.60;;;;;;5028568;28;20112;-49
2022/07/13 00:22:28;;;;;;;1.92;1.83;;;19.10;93.20;;;;;;5028724;28;20029;-48
2022/07/13 00:24:54;;;;;;;2.10;1.80;;;19.00;94.10;;;;;;5028092;28;20032;-48
2022/07/13 00:27:19;;;;;;;2.17;1.95;;;19.00;93.80;;;;;;5027332;28;20026;-49
2022/07/13 00:29:45;;;;;;;2.58;2.10;;;19.00;94.20;;;;;;5028761;28;20044;-49
2022/07/13 00:32:10;;;;;;;2.15;1.95;;;19.00;94.40;;;;;;5028884;28;20060;-47
2022/07/13 00:34:36;;;;;;;2.28;1.90;;;18.90;95.90;;;;;;5027937;28;20048;-50
2022/07/13 00:37:01;;;;;;;9.63;2.20;;;18.90;96.40;;;;;;5028601;28;20025;-48
2022/07/13 00:39:27;;;;;;;2.63;2.17;;;18.90;93.30;;;;;;5036506;28;20021;-48
2022/07/13 00:41:52;;;;;;;2.53;2.13;;;19.00;93.10;;;;;;5030600;28;20104;-50
2022/07/13 00:44:18;;;;;;;2.53;2.17;;;19.00;92.70;;;;;;5039439;28;20032;-51
2022/07/13 00:46:51;;;;;;;2.10;1.90;;;19.00;92.70;;;;;;5043246;28;20364;-49
2022/07/13 00:49:17;;;;;;;2.90;2.17;;;19.10;92.70;;;;;;5040009;28;20100;-51
2022/07/13 00:51:43;;;;;;;2.17;1.80;;;19.10;92.70;;;;;;5048395;28;20112;-52
2022/07/13 00:54:08;;;;;;;2.60;2.28;;;19.10;92.70;;;;;;5047622;28;20025;-49
2022/07/13 00:56:35;;;;;;;2.78;2.30;;;19.10;92.50;;;;;;5048285;28;20029;-49
2022/07/13 00:59:01;;;;;;;2.50;2.30;;;19.10;92.50;;;;;;5048131;28;20029;-50
2022/07/13 01:01:27;;;;;;;2.05;1.83;;;19.20;92.90;;;;;;5048468;28;20044;-50
2022/07/13 01:03:53;;;;;;;1.92;1.83;;;19.10;93.50;;;;;;5048033;28;20017;-50
2022/07/13 01:06:18;;;;;;;2.63;1.83;;;19.10;93.40;;;;;;5047892;28;20517;-49
2022/07/13 01:08:44;;;;;;;2.00;1.77;;;19.10;93.50;;;;;;5046934;28;20505;-49
2022/07/13 01:11:10;;;;;;;2.80;2.20;;;19.10;94.30;;;;;;5048222;28;20486;-48
2022/07/13 01:13:36;;;;;;;2.67;2.00;;;19.10;93.60;;;;;;5046544;28;20725;-49
2022/07/13 01:16:03;;;;;;;2.35;1.80;;;19.10;93.20;;;;;;5047055;28;20115;-51
2022/07/13 01:18:29;;;;;;;4.10;2.22;;;19.10;93.10;;;;;;5036283;28;20047;-50
2022/07/13 01:20:54;;;;;;;2.60;2.40;;;19.20;93.10;;;;;;5048279;28;20033;-52
2022/07/13 01:23:20;;;;;;;4.38;2.30;;;19.20;93.90;;;;;;5048139;28;20417;-51
2022/07/13 01:25:46;;;;;;;3.58;2.20;;;19.20;94.40;;;;;;5047516;28;20036;-48
2022/07/13 01:28:15;;;;;;;2.15;1.85;;;19.20;94.00;;;;;;5047617;28;20029;-51
2022/07/13 01:30:41;;;;;;;2.65;2.33;;;19.20;94.40;;;;;;5040887;28;20025;-48
2022/07/13 01:33:06;;;;;;;4.28;2.47;;;19.20;94.40;;;;;;5044372;28;20364;-50
2022/07/13 01:35:32;;;;;;;2.22;2.03;;;19.20;93.80;;;;;;5051182;28;20490;-51
2022/07/13 01:37:58;;;;;;;6.22;2.95;;;19.20;93.50;;;;;;5051242;28;20029;-49
2022/07/13 01:40:23;;;;;;;4.57;2.83;;;19.20;93.30;;;;;;5044560;28;20021;-48
2022/07/13 01:42:51;;;;;;;5.15;2.97;;;19.20;93.30;;;;;;5042994;28;20530;-49
2022/07/13 01:45:22;;;;;;;5.32;3.58;;;19.30;93.40;;;;;;5049457;28;20374;-48
2022/07/13 01:47:50;;;;;;;5.32;3.30;;;19.30;93.40;;;;;;5043690;28;20526;-48
2022/07/13 01:50:17;;;;;;;4.57;3.20;;;19.30;93.40;;;;;;5046216;28;20017;-49
2022/07/13 01:52:43;;;;;;;6.20;3.70;;;19.30;93.40;;;;;;5051354;28;20025;-51
2022/07/13 01:55:10;;;;;;;6.97;4.07;;;19.30;93.80;;;;;;5050694;28;20337;-49
2022/07/13 01:57:36;;;;;;;3.80;3.22;;;19.30;93.50;;;;;;5051456;28;20107;-48
2022/07/13 02:00:30;;;;;;;4.95;3.35;;;19.30;93.90;;;;;;5051381;28;20554;-51
2022/07/13 02:02:56;;;;;;;6.28;2.97;;;19.30;94.40;;;;;;5049850;28;20072;-48
2022/07/13 02:05:25;;;;;;;4.03;3.05;;;19.30;94.20;;;;;;5049126;28;20455;-47
2022/07/13 02:07:50;;;;;;;5.55;3.22;;;19.30;94.90;;;;;;5040014;28;20124;-48
2022/07/13 02:10:16;;;;;;;3.75;3.03;;;19.20;95.40;;;;;;5031008;28;20105;-49
2022/07/13 02:12:41;;;;;;;4.30;3.08;;;19.20;97.10;;;;;;5024821;28;20224;-48
2022/07/13 02:15:08;;;;;;;4.00;3.15;;;19.10;96.30;;;;;;5020860;28;20045;-49
2022/07/13 02:17:34;;;;;;;3.38;3.08;;;19.10;96.00;;;;;;5038711;28;20127;-48
2022/07/13 02:19:59;;;;;;;3.88;3.08;;;19.10;96.50;;;;;;5029317;28;20033;-48
2022/07/13 02:22:25;;;;;;;4.47;3.78;;;19.10;97.00;;;;;;5021567;28;20107;-49
2022/07/13 02:24:51;;;;;;;5.43;3.20;;;19.10;96.60;;;;;;5018807;28;20024;-50
2022/07/13 02:27:16;;;;;;;4.70;3.00;;;19.10;95.20;;;;;;5021088;28;20056;-50
2022/07/13 02:29:42;;;;;;;5.72;2.90;;;19.10;94.30;;;;;;5019393;28;20472;-48
2022/07/13 02:32:07;;;;;;;2.95;2.47;;;19.10;94.10;;;;;;5025077;28;20025;-48
2022/07/13 02:34:33;;;;;;;4.35;3.00;;;19.20;94.10;;;;;;5020831;28;20091;-48
2022/07/13 02:36:59;;;;;;;3.63;2.70;;;19.20;94.00;;;;;;5022247;28;20022;-48
2022/07/13 02:39:24;;;;;;;4.85;2.72;;;19.20;94.00;;;;;;5023743;28;20033;-47
2022/07/13 02:41:50;;;;;;;3.90;2.67;;;19.20;94.00;;;;;;5030685;28;20033;-47
2022/07/13 02:44:16;;;;;;;4.05;2.72;;;19.20;95.00;;;;;;5029316;28;20033;-51
2022/07/13 02:46:42;;;;;;;3.65;2.67;;;19.10;95.20;;;;;;5031823;28;20079;-49
2022/07/13 02:49:07;;;;;;;3.88;2.60;;;19.10;96.10;;;;;;5041904;28;20017;-48
2022/07/13 02:51:32;;;;;;;2.67;2.47;;;19.00;96.30;;;;;;5050325;28;20075;-48
2022/07/13 02:53:58;;;;;;;5.13;2.53;;;19.00;96.30;;;;;;5049945;28;20070;-48
2022/07/13 02:56:23;;;;;;;3.13;2.55;;;18.90;96.90;;;;;;5035081;28;20034;-51
2022/07/13 02:58:49;;;;;;;4.15;2.60;;;18.90;96.30;;;;;;5020809;28;20033;-48
2022/07/13 03:01:15;;;;;;;3.80;3.28;;;18.90;97.70;;;;;;5018738;28;20038;-49
2022/07/13 03:03:41;;;;;;;8.50;4.40;;;18.90;97.30;;;;;;5020571;28;20045;-48
2022/07/13 03:06:06;;;;;;;5.57;3.70;;;18.90;95.60;;;;;;5018364;28;20402;-48
2022/07/13 03:08:32;;;;;;;4.35;3.28;;;19.00;95.30;;;;;;5020582;28;20034;-51
2022/07/13 03:10:58;;;;;;;7.53;3.53;;;19.10;95.30;;;;;;5018797;28;20050;-49
2022/07/13 03:13:23;;;;;;;3.90;2.80;;;19.10;95.10;;;;;;5017915;28;20527;-48
2022/07/13 03:15:49;;;;;;;3.97;3.05;;;19.10;95.20;;;;;;5016375;28;20018;-48
2022/07/13 03:18:14;;;;;;;6.25;3.50;;;19.00;95.20;;;;;;5034208;28;20037;-48
2022/07/13 03:20:41;;;;;;;3.47;2.90;;;19.00;95.20;;;;;;5024229;28;20130;-48
2022/07/13 03:23:06;;;;;;;4.78;2.88;;;19.00;95.30;;;;;;5014981;28;20064;-48
2022/07/13 03:25:32;;;;;;;7.15;3.13;;;19.10;95.30;;;;;;5009269;28;20026;-48
2022/07/13 03:27:58;;;;;;;5.10;3.38;;;19.10;95.40;;;;;;5010221;28;20021;-48
2022/07/13 03:30:23;;;;;;;4.50;3.47;;;19.10;95.20;;;;;;5009866;28;20495;-48
2022/07/13 03:32:49;;;;;;;4.30;3.15;;;19.20;95.10;;;;;;5009499;28;20105;-48
2022/07/13 03:35:15;;;;;;;6.28;3.38;;;19.20;95.10;;;;;;5007710;28;20022;-48
2022/07/13 03:37:41;;;;;;;6.85;4.03;;;19.20;95.00;;;;;;5008452;28;20272;-48
2022/07/13 03:40:07;;;;;;;4.43;3.45;;;19.20;95.00;;;;;;5009600;28;20076;-48
2022/07/13 03:42:34;;;;;;;5.50;3.38;;;19.30;95.10;;;;;;5009524;28;20120;-48
2022/07/13 03:44:59;;;;;;;5.57;3.40;;;19.30;95.00;;;;;;5008673;28;20105;-48
2022/07/13 03:47:25;;;;;;;3.60;2.85;;;19.30;95.30;;;;;;5027247;28;20108;-47
2022/07/13 03:49:50;;;;;;;4.05;3.08;;;19.30;95.40;;;;;;5040845;28;20028;-48
2022/07/13 03:52:16;;;;;;;3.58;3.00;;;19.30;95.40;;;;;;5049117;28;20051;-48
2022/07/13 03:54:43;;;;;;;4.13;2.80;;;19.30;95.30;;;;;;5047933;28;20566;-49
2022/07/13 03:57:08;;;;;;;4.18;2.63;;;19.40;95.40;;;;;;5048246;28;20057;-48
2022/07/13 03:59:34;;;;;;;3.88;2.40;;;19.40;95.50;;;;;;5048757;28;20174;-48
2022/07/13 04:02:00;;;;;;;3.67;2.40;;;19.40;95.20;;;;;;5022636;28;20098;-51
2022/07/13 04:04:26;;;;;;;6.07;2.60;;;19.40;95.00;;;;;;5017879;28;20036;-48
2022/07/13 04:06:52;;;;;;;3.65;2.60;;;19.40;95.00;;;;;;5018600;28;20021;-49
2022/07/13 04:09:17;;;;;;;5.38;2.58;;;19.50;94.90;;;;;;5027504;28;20395;-49
2022/07/13 04:11:43;;;;;;;5.38;2.60;;;19.50;94.90;;;;;;5028623;28;20052;-48
2022/07/13 04:14:09;;;;;;;3.20;2.38;;;19.50;95.00;;;;;;5028400;28;20033;-48
2022/07/13 04:16:34;;;;;;;3.92;2.63;;;19.40;94.90;;;;;;5029718;28;20036;-48
2022/07/13 04:19:00;;;;;;;2.72;2.33;;;19.40;94.90;;;;;;5040309;28;20048;-49
2022/07/13 04:21:25;;;;;;;3.80;2.53;;;19.40;95.00;;;;;;5048902;28;20106;-48
2022/07/13 04:23:51;;;;;;;2.20;2.00;;;19.50;95.00;;;;;;5046966;28;20390;-48
2022/07/13 04:26:16;;;;;;;3.67;2.25;;;19.50;94.90;;;;;;5048467;28;20483;-47
2022/07/13 04:28:42;;;;;;;3.35;2.13;;;19.50;94.90;;;;;;5048661;28;20029;-48
2022/07/13 04:31:07;;;;;;;2.83;2.10;;;19.60;94.90;;;;;;5048568;28;20574;-48
2022/07/13 04:33:33;;;;;;;2.88;2.10;;;19.60;94.80;;;;;;5048433;28;20033;-47
2022/07/13 04:35:58;;;;;;;3.90;2.33;;;19.60;94.80;;;;;;5048037;28;20044;-49
2022/07/13 04:38:24;;;;;;;2.20;2.00;;;19.70;94.80;;;;;;5048857;28;20052;-47
2022/07/13 04:40:49;;;;;;;2.60;1.73;;;19.80;94.70;;;;;;5048448;28;20029;-47
2022/07/13 04:43:15;;;;;;;3.05;2.08;;;19.80;94.60;;;;;;5048223;28;20044;-47
2022/07/13 04:45:40;;;;;;;5.75;2.03;;;19.80;94.70;;;;;;5047619;28;20091;-48
2022/07/13 04:48:06;;;;;;;5.05;2.55;;;19.90;94.60;;;;;;5029581;28;20017;-47
2022/07/13 04:50:31;;;;;;;2.97;2.20;;;20.00;94.40;;;;;;5021020;28;20097;-48
2022/07/13 04:52:57;;;;;;;2.17;1.98;;;20.00;94.40;;;;;;5018319;28;20048;-47
2022/07/13 04:55:22;;;;;;;4.78;2.30;;;20.00;94.50;;;;;;5017886;28;20025;-47
2022/07/13 04:57:48;;;;;;;2.80;2.08;;;20.00;94.50;;;;;;5016930;28;20029;-47
2022/07/13 05:00:14;;;;;;;2.33;1.77;;;20.00;94.60;;;;;;5016548;28;20113;-48
2022/07/13 05:02:39;;;;;;;5.28;2.13;;;20.00;94.60;;;;;;5017184;28;20034;-47
2022/07/13 05:05:06;;;;;;;7.15;2.40;;;20.10;94.40;;;;;;5024094;28;20379;-48
2022/07/13 05:07:31;;;;;;;4.28;2.20;;;20.20;94.30;;;;;;5017849;28;20022;-48
2022/07/13 05:09:57;;;;;;;2.13;1.92;;;20.20;94.40;;;;;;5012244;28;20033;-48
2022/07/13 05:12:23;;;;;;;3.10;2.30;;;20.30;94.10;;;;;;5010583;28;20038;-48
2022/07/13 05:14:48;;;;;;;5.35;2.33;;;20.30;94.10;;;;;;5010237;28;20099;-47
2022/07/13 05:17:16;;;;;;;2.17;1.98;;;20.30;94.00;;;;;;5024315;28;20049;-48
2022/07/13 05:19:41;;;;;;;3.75;1.92;;;20.50;94.10;;;;;;5025787;28;20026;-49
2022/07/13 05:22:07;;;;;;;5.65;2.03;;;20.50;93.80;;;;;;5028640;28;20313;-48
2022/07/13 05:24:32;;;;;;;3.28;2.30;;;20.60;93.60;;;;;;5029998;28;20022;-50
2022/07/13 05:26:58;;;;;;;1.85;1.75;;;20.70;93.40;;;;;;5036219;28;20380;-49
2022/07/13 05:29:23;;;;;;;2.20;2.00;;;20.80;93.20;;;;;;5027619;28;20060;-48
2022/07/13 05:31:49;;;;;;;3.65;1.90;;;20.80;93.30;;;;;;5029616;28;20038;-50
2022/07/13 05:34:14;;;;;;;2.95;1.90;;;20.80;93.40;;;;;;5022949;28;20041;-51
2022/07/13 05:36:40;;;;;;;4.97;2.30;;;20.90;93.20;;;;;;5030890;28;20037;-51
2022/07/13 05:39:05;;;;;;;3.97;1.98;;;20.90;93.10;;;;;;5028266;28;20344;-48
2022/07/13 05:41:32;;;;;;;3.20;2.22;;;20.90;93.00;;;;;;5031320;28;20045;-48
2022/07/13 05:43:59;;;;;;;4.10;2.35;;;21.00;93.30;;;;;;5023791;28;20022;-48
2022/07/13 05:46:25;;;;;;;4.20;2.50;;;21.10;93.00;;;;;;5027652;28;20013;-49
2022/07/13 05:48:50;;;;;;;3.15;2.13;;;21.20;92.70;;;;;;5039876;28;20028;-49
2022/07/13 05:51:16;;;;;;;3.33;2.17;;;21.30;92.40;;;;;;5044410;28;20244;-48
2022/07/13 05:53:42;;;;;;;3.97;1.92;;;21.40;92.50;;;;;;5030112;28;20029;-49
2022/07/13 05:56:07;;;;;;;4.28;2.17;;;21.50;92.10;;;;;;5029513;28;20527;-48
2022/07/13 05:58:33;;;;;;;5.53;2.00;;;21.50;91.90;;;;;;5028567;28;20265;-50
2022/07/13 06:00:58;;;;;;;2.17;1.90;;;21.60;91.80;;;;;;5030084;28;20052;-48
2022/07/13 06:03:24;;;;;;;1.98;1.70;;;21.70;91.60;;;;;;5029644;28;20407;-49
2022/07/13 06:05:50;;;;;;;2.22;1.90;;;21.70;91.50;;;;;;5030498;28;20026;-48
2022/07/13 06:08:15;;;;;;;5.07;1.80;;;21.80;91.90;;;;;;5030504;28;20060;-47
2022/07/13 06:10:41;;;;;;;2.47;2.00;;;21.90;91.40;;;;;;5031079;28;20041;-48
2022/07/13 06:13:06;;;;;;;4.38;2.42;;;21.80;91.30;;;;;;5030660;28;20474;-50
2022/07/13 06:15:32;;;;;;;2.17;1.70;;;21.90;91.50;;;;;;5030137;28;20471;-50
2022/07/13 06:17:57;;;;;;;6.25;2.13;;;22.00;91.30;;;;;;5028242;28;20025;-48
2022/07/13 06:20:23;;;;;;;2.58;1.77;;;22.00;91.10;;;;;;5029972;28;20610;-48
2022/07/13 06:23:09;;;;;;;2.03;1.83;;;22.10;91.20;;;;;;5038573;28;20044;-48
2022/07/13 06:25:34;;;;;;;4.20;1.80;;;22.10;91.00;;;;;;5029752;28;20025;-48
2022/07/13 06:27:59;;;;;;;2.40;1.80;;;22.30;90.90;;;;;;5030428;28;20025;-50
2022/07/13 06:30:25;;;;;;;2.22;1.77;;;22.30;90.60;;;;;;5030780;28;20017;-49
2022/07/13 06:32:50;;;;;;;2.63;1.48;;;22.40;90.70;;;;;;5030151;28;20140;-49
2022/07/13 06:35:16;;;;;;;2.78;1.63;;;22.50;90.60;;;;;;5030071;28;20101;-49
2022/07/13 06:37:41;;;;;;;1.73;1.60;;;22.40;90.60;;;;;;5030147;28;20026;-49
2022/07/13 06:40:07;;;;;;;3.40;1.92;;;22.50;90.80;;;;;;5030590;28;20497;-50
2022/07/13 06:42:33;;;;;;;3.70;1.40;;;22.50;90.60;;;;;;5030468;28;20029;-50
2022/07/13 06:44:58;;;;;;;2.15;1.70;;;22.70;90.30;;;;;;5029471;28;20036;-48
2022/07/13 06:47:24;;;;;;;2.63;1.65;;;22.80;90.50;;;;;;5037089;28;20035;-50
2022/07/13 06:49:51;;;;;;;1.70;1.60;;;23.00;90.60;;;;;;5041781;28;20036;-49
2022/07/13 06:52:16;;;;;;;2.88;1.52;;;23.20;90.30;;;;;;5047948;28;20025;-50
2022/07/13 06:54:42;;;;;;;3.50;1.70;;;23.30;89.40;;;;;;5029626;28;20112;-50
2022/07/13 06:57:07;;;;;;;5.93;2.17;;;23.30;90.00;;;;;;5030037;28;20033;-49
2022/07/13 06:59:32;;;;;;;2.25;1.50;;;23.40;89.10;;;;;;5030220;28;20189;-50
2022/07/13 07:01:58;;;;;;;2.75;1.70;;;23.60;88.60;;;;;;5028433;28;20087;-48
2022/07/13 07:04:24;;;;;;;2.05;1.75;;;23.70;88.00;;;;;;5029352;28;20029;-49
2022/07/13 07:06:49;;;;;;;1.98;1.58;;;23.90;87.50;;;;;;5029438;28;20490;-48
2022/07/13 07:09:15;;;;;;;6.93;2.00;;;24.10;87.00;;;;;;5028419;28;20099;-49
2022/07/13 07:11:40;;;;;;;4.70;1.92;;;24.10;86.60;;;;;;5029713;28;20045;-51
2022/07/13 07:14:06;;;;;;;6.85;1.73;;;24.30;87.20;;;;;;5028915;28;20125;-48
2022/07/13 07:16:31;;;;;;;6.57;1.70;;;24.40;85.50;;;;;;5029671;28;20030;-50
2022/07/13 07:18:57;;;;;;;4.60;1.75;;;24.40;85.40;;;;;;5029228;28;20029;-49
2022/07/13 07:21:22;;;;;;;3.17;1.85;;;24.40;84.20;;;;;;5029658;28;20036;-49
2022/07/13 07:23:48;;;;;;;3.80;2.00;;;24.60;83.40;;;;;;5029483;28;20034;-49
2022/07/13 07:26:13;;;;;;;5.43;1.85;;;24.70;83.80;;;;;;5037110;28;20018;-50
2022/07/13 07:28:39;;;;;;;4.55;1.60;;;24.80;84.40;;;;;;5034389;28;20040;-49
2022/07/13 07:31:04;;;;;;;3.85;1.90;;;24.90;82.20;;;;;;5026704;28;20026;-50
2022/07/13 07:33:30;;;;;;;1.63;1.52;;;24.80;82.30;;;;;;5022360;28;20426;-51
2022/07/13 07:35:55;;;;;;;2.42;1.70;;;25.00;82.20;;;;;;5021676;28;20029;-49
2022/07/13 07:38:21;;;;;;;2.83;1.48;;;25.10;81.20;;;;;;5023832;28;20022;-50
2022/07/13 07:40:46;;;;;;;2.50;1.88;;;25.40;81.50;;;;;;5021357;28;20018;-48
2022/07/13 07:43:12;;;;;;;3.20;1.60;;;25.70;80.20;;;;;;5019237;28;20036;-48
2022/07/13 07:45:38;;;;;;;3.63;1.92;;;25.80;79.40;;;;;;5017281;28;20142;-49
2022/07/13 07:48:03;;;;;;;4.38;1.70;;;25.80;78.30;;;;;;5026908;28;20025;-49
2022/07/13 07:50:29;;;;;;;2.95;1.75;;;25.90;78.40;;;;;;5024660;28;20037;-49
2022/07/13 07:52:55;;;;;;;2.25;1.73;;;26.00;78.50;;;;;;5018797;28;20506;-48
2022/07/13 07:55:21;;;;;;;3.15;1.80;;;26.20;76.40;;;;;;5028560;28;20431;-50
2022/07/13 07:57:48;;;;;;;7.53;2.47;;;26.50;74.10;;;;;;5028826;28;20037;-51
2022/07/13 08:00:15;;;;;;;2.50;1.70;;;26.50;73.70;;;;;;5029514;28;20553;-48
2022/07/13 08:02:40;;;;;;;4.35;2.35;;;26.80;73.70;;;;;;5029121;28;20029;-51
2022/07/13 08:05:07;;;;;;;3.13;1.88;;;26.90;71.70;;;;;;5028455;28;20023;-51
2022/07/13 08:07:32;;;;;;;1.92;1.58;;;26.90;72.50;;;;;;5035671;28;20471;-51
2022/07/13 08:09:58;;;;;;;5.40;1.70;;;27.30;71.00;;;;;;5028775;28;20029;-50
2022/07/13 08:12:23;;;;;;;1.92;1.35;;;27.40;68.60;;;;;;5027292;28;20493;-51
2022/07/13 08:14:49;;;;;;;1.70;1.60;;;27.70;67.90;;;;;;5028187;28;20103;-50
2022/07/13 08:17:14;;;;;;;2.30;1.40;;;28.00;67.70;;;;;;5028344;28;20036;-51
2022/07/13 08:19:40;;;;;;;4.15;1.50;;;28.10;65.80;;;;;;5028629;28;20026;-48
2022/07/13 08:22:05;;;;;;;2.08;1.63;;;28.20;65.30;;;;;;5028649;28;20036;-52
2022/07/13 08:24:31;;;;;;;1.67;1.48;;;28.40;65.80;;;;;;5022540;28;20034;-50
2022/07/13 08:26:57;;;;;;;1.92;1.27;;;29.20;65.00;;;;;;5029405;28;20135;-51
2022/07/13 08:29:22;;;;;;;3.38;1.60;;;30.00;62.70;;;;;;5016597;28;20021;-52
2022/07/13 08:31:48;;;;;;;3.38;1.35;;;29.70;61.40;;;;;;5025168;28;20087;-51
2022/07/13 08:39:42;;;;;;;2.55;1.40;;;30.50;56.80;;;;;;5020265;28;20110;-50
2022/07/13 08:42:09;;;;;;;2.97;1.25;;;30.30;57.20;;;;;;5029925;28;20017;-50
2022/07/13 08:44:34;;;;;;;1.10;1.00;;;30.30;57.40;;;;;;5030894;28;20355;-51
2022/07/13 08:47:01;;;;;;;1.33;1.00;;;30.00;58.20;;;;;;5035654;28;20103;-49
2022/07/13 08:49:28;;;;;;;5.60;1.45;;;29.70;57.20;;;;;;5034155;28;20021;-49
2022/07/13 08:51:55;;;;;;;2.08;1.13;;;29.70;57.40;;;;;;5038115;28;20334;-49
2022/07/13 08:54:20;;;;;;;5.03;1.80;;;29.60;56.90;;;;;;5033777;28;20196;-51
2022/07/13 08:56:46;;;;;;;1.77;1.50;;;29.60;57.00;;;;;;5033502;28;20025;-50
2022/07/13 08:59:13;;;;;;;3.40;1.20;;;29.60;56.90;;;;;;5034741;28;20474;-51
2022/07/13 09:01:39;;;;;;;2.47;1.35;;;29.40;57.00;;;;;;5033424;28;20033;-50
2022/07/13 09:04:09;;;;;;;2.85;1.50;;;29.40;57.10;;;;;;5041454;28;20021;-51
2022/07/13 09:06:45;;;;;;;4.25;1.40;;;29.20;57.30;;;;;;5043134;28;20026;-51
2022/07/13 09:09:35;;;;;;;1.90;1.48;;;29.10;58.00;;;;;;5029177;28;20071;-49
2022/07/13 09:12:16;;;;;;;3.50;1.50;;;29.40;58.40;;;;;;5023580;28;20064;-50
2022/07/13 09:14:42;;;;;;;5.43;1.95;;;29.40;57.70;;;;;;5034446;28;20047;-49
2022/07/13 09:17:07;;;;;;;1.83;1.60;;;29.50;57.10;;;;;;5034959;28;20033;-50
2022/07/13 09:19:35;;;;;;;5.85;1.90;;;29.70;57.90;;;;;;5034161;28;20041;-49
2022/07/13 09:22:13;;;;;;;2.70;1.40;;;29.80;57.40;;;;;;5032931;28;20025;-49
2022/07/13 09:24:43;;;;;;;3.10;1.83;;;29.60;57.20;;;;;;5030133;28;20048;-51
2022/07/13 09:27:09;;;;;;;3.28;1.70;;;29.50;58.20;;;;;;5029158;28;20148;-51
2022/07/13 09:29:36;;;;;;;2.30;1.67;;;29.70;58.00;;;;;;5026541;28;20077;-49
2022/07/13 09:32:10;;;;;;;3.25;1.70;;;29.70;57.30;;;;;;5029997;28;20095;-49
2022/07/13 09:34:51;;;;;;;5.57;1.55;;;29.80;57.00;;;;;;5026833;28;20105;-51
2022/07/13 09:37:22;;;;;;;2.28;1.75;;;29.80;57.20;;;;;;5027968;28;20483;-51
2022/07/13 09:40:07;;;;;;;1.83;1.55;;;30.00;57.80;;;;;;5026281;28;20531;-50
2022/07/13 09:42:37;;;;;;;2.05;1.50;;;30.00;55.80;;;;;;5026917;28;20494;-51
2022/07/13 09:47:54;;;;;;;2.78;1.60;;;30.50;54.80;;;;;;5027100;28;20029;-51
2022/07/13 09:50:22;;;;;;;2.55;1.70;;;30.60;53.80;;;;;;5032752;28;20027;-50
2022/07/13 09:52:51;;;;;;;6.15;2.00;;;30.90;55.00;;;;;;5030974;28;20475;-50
2022/07/13 09:55:23;;;;;;;3.28;1.70;;;31.20;54.80;;;;;;5024584;28;20104;-51
2022/07/13 09:57:59;;;;;;;2.90;1.92;;;31.50;54.60;;;;;;5024887;28;20022;-49
2022/07/13 10:00:26;;;;;;;5.50;1.90;;;31.20;55.30;;;;;;5023115;28;20364;-49
2022/07/13 10:02:52;;;;;;;2.67;1.60;;;31.20;54.10;;;;;;5028536;28;20067;-50
2022/07/13 10:05:19;;;;;;;1.65;1.55;;;31.20;55.10;;;;;;5021646;28;20427;-51
2022/07/13 10:07:46;;;;;;;2.28;1.65;;;31.10;53.80;;;;;;5026908;28;20030;-49
2022/07/13 10:10:13;;;;;;;4.00;1.92;;;31.00;55.60;;;;;;5022826;28;20568;-51
2022/07/13 10:12:40;;;;;;;2.88;1.60;;;30.90;54.70;;;;;;5020299;28;20037;-51
2022/07/13 10:15:07;;;;;;;4.95;2.10;;;30.80;54.60;;;;;;5022384;28;20033;-51
2022/07/13 10:17:33;;;;;;;3.40;1.83;;;30.50;54.80;;;;;;5023213;28;20183;-49
2022/07/13 10:20:04;;;;;;;3.05;1.70;;;30.50;54.80;;;;;;5032270;28;20467;-51
2022/07/13 10:22:34;;;;;;;2.40;1.92;;;30.70;54.70;;;;;;5026338;28;20116;-49
2022/07/13 10:25:00;;;;;;;3.08;1.70;;;30.60;54.40;;;;;;5030362;28;20017;-50
2022/07/13 10:27:36;;;;;;;3.97;2.30;;;30.90;55.50;;;;;;5026059;28;20028;-51
2022/07/13 10:30:15;;;;;;;4.78;2.03;;;31.50;55.60;;;;;;5026195;28;20614;-51
2022/07/13 10:32:42;;;;;;;3.50;2.03;;;32.40;52.70;;;;;;5023740;28;20032;-52
2022/07/13 10:35:11;;;;;;;4.60;1.83;;;33.20;52.10;;;;;;5021241;28;20506;-51
2022/07/13 10:37:55;;;;;;;5.55;1.80;;;33.70;51.60;;;;;;5019731;28;20022;-51
2022/07/13 10:40:28;;;;;;;2.75;1.83;;;33.90;49.00;;;;;;5031427;28;20025;-51
2022/07/13 10:42:53;;;;;;;2.35;1.73;;;33.50;49.10;;;;;;5026771;28;20601;-51
2022/07/13 10:45:48;;;;;;;2.15;1.95;;;32.80;49.50;;;;;;5026763;28;20113;-52
2022/07/13 10:48:25;;;;;;;1.83;1.70;;;32.30;50.40;;;;;;5024113;28;20482;-51
2022/07/13 10:50:52;;;;;;;3.63;1.90;;;32.10;50.20;;;;;;5033176;28;20492;-51
2022/07/13 10:53:19;;;;;;;6.15;2.00;;;31.80;50.20;;;;;;5022297;28;20028;-51
2022/07/13 10:55:48;;;;;;;4.53;1.85;;;31.30;51.50;;;;;;5019823;28;20445;-51
2022/07/13 10:58:35;;;;;;;3.72;1.70;;;31.20;51.60;;;;;;5021727;28;20589;-51
2022/07/13 11:01:21;;;;;;;9.32;4.55;;;30.80;51.80;;;;;;5020024;28;20125;-52
2022/07/13 11:03:48;;;;;;;8.02;6.13;;;30.30;51.90;;;;;;5031861;28;20029;-51
2022/07/13 11:06:21;;;;;;;3.67;1.75;;;30.00;52.50;;;;;;5040456;28;20032;-50
2022/07/13 11:09:06;;;;;;;3.72;1.88;;;29.80;52.90;;;;;;5040564;28;20029;-51
2022/07/13 11:11:32;;;;;;;3.00;1.90;;;29.70;53.70;;;;;;5046719;28;20047;-50
2022/07/13 11:13:58;;;;;;;2.80;1.90;;;29.60;53.60;;;;;;5032702;28;20624;-51
2022/07/13 11:16:53;;;;;;;5.03;2.03;;;29.50;53.80;;;;;;5029106;28;20041;-50
2022/07/13 11:19:57;;;;;;;3.90;1.90;;;29.40;54.10;;;;;;5024629;28;20052;-49
2022/07/13 11:22:24;;;;;;;5.55;2.20;;;29.40;53.30;;;;;;5023546;28;20033;-51
2022/07/13 11:25:19;;;;;;;6.38;1.80;;;29.50;54.60;;;;;;5017699;28;20033;-51
2022/07/13 11:28:12;;;;;;;2.85;1.85;;;29.70;54.10;;;;;;5020135;28;20117;-50
2022/07/13 11:30:44;;;;;;;4.68;1.98;;;29.90;54.00;;;;;;5029392;28;20160;-50
2022/07/13 11:33:13;;;;;;;3.95;1.85;;;30.50;54.70;;;;;;5025180;28;20049;-48
2022/07/13 11:35:44;;;;;;;2.95;1.65;;;30.90;52.50;;;;;;5014822;28;20021;-48
2022/07/13 11:38:11;;;;;;;3.20;1.67;;;31.20;52.30;;;;;;5019820;28;20088;-51
2022/07/13 11:40:37;;;;;;;5.35;2.30;;;31.10;52.70;;;;;;5018212;28;20117;-50
2022/07/13 11:43:03;;;;;;;3.20;1.90;;;31.20;52.70;;;;;;5020042;28;20391;-50
2022/07/13 11:45:32;;;;;;;3.20;1.73;;;31.30;51.90;;;;;;5018611;28;20112;-50
2022/07/13 11:48:00;;;;;;;2.75;1.98;;;31.60;51.90;;;;;;5019109;28;20017;-50
2022/07/13 11:50:45;;;;;;;3.75;1.50;;;33.00;52.70;;;;;;5028004;28;20033;-51
2022/07/13 11:53:30;;;;;;;4.18;1.80;;;34.60;49.80;;;;;;5035116;28;20391;-52
2022/07/13 11:56:04;;;;;;;4.53;1.83;;;36.10;48.30;;;;;;5009517;28;20030;-52
2022/07/13 11:58:32;;;;;;;4.55;1.90;;;35.60;48.00;;;;;;5029244;28;20564;-52
2022/07/13 12:00:58;;;;;;;5.75;1.98;;;35.10;48.40;;;;;;5028510;28;20018;-51
2022/07/13 12:03:48;;;;;;;6.00;1.85;;;34.10;48.40;;;;;;5035750;28;20025;-51
2022/07/13 12:06:14;;;;;;;3.78;1.58;;;32.90;50.40;;;;;;5037810;28;20029;-51
2022/07/13 12:08:41;;;;;;;2.88;1.75;;;32.50;51.30;;;;;;5036929;28;20037;-51
2022/07/13 12:11:18;;;;;;;2.25;1.90;;;33.30;51.50;;;;;;5029067;28;20056;-51
2022/07/13 12:13:46;;;;;;;3.08;1.52;;;33.90;51.20;;;;;;5028344;28;20025;-51
2022/07/13 12:16:13;;;;;;;3.22;1.58;;;34.20;49.20;;;;;;5034000;28;20487;-51
2022/07/13 12:18:58;;;;;;;2.67;1.80;;;34.50;49.50;;;;;;5039015;28;20040;-49
2022/07/13 12:21:24;;;;;;;1.77;1.60;;;34.20;49.60;;;;;;5040315;28;20479;-51
2022/07/13 12:23:50;;;;;;;6.55;1.50;;;33.80;50.90;;;;;;5035409;28;20033;-51
2022/07/13 12:26:15;;;;;;;3.13;1.50;;;34.00;49.60;;;;;;5029677;28;20032;-51
2022/07/13 12:28:44;;;;;;;3.05;1.90;;;34.10;50.80;;;;;;5034622;28;20033;-50
2022/07/13 12:31:10;;;;;;;2.70;1.70;;;33.80;50.40;;;;;;5028728;28;20163;-51
2022/07/13 12:33:42;;;;;;;6.50;1.75;;;33.80;50.20;;;;;;5028457;28;20124;-51
2022/07/13 12:36:08;;;;;;;4.32;1.80;;;33.60;50.30;;;;;;5028334;28;20022;-51
2022/07/13 12:38:34;;;;;;;5.70;2.20;;;33.20;50.70;;;;;;5028354;28;20029;-51
2022/07/13 12:41:01;;;;;;;4.88;1.60;;;33.10;51.90;;;;;;5028822;28;20033;-53
2022/07/13 12:43:33;;;;;;;4.25;1.52;;;33.70;52.10;;;;;;5026962;28;20343;-51
2022/07/13 12:46:01;;;;;;;7.28;1.67;;;34.10;50.80;;;;;;5026808;28;20491;-50
2022/07/13 12:48:32;;;;;;;3.58;1.83;;;34.00;50.30;;;;;;5028887;28;20176;-50
2022/07/13 12:51:02;;;;;;;4.13;1.73;;;33.70;51.20;;;;;;5029092;28;20024;-51
2022/07/13 12:53:50;;;;;;;3.92;1.40;;;33.30;50.60;;;;;;5027923;28;20329;-50
2022/07/13 12:56:17;;;;;;;6.15;1.70;;;33.00;52.10;;;;;;5035281;28;20029;-49
2022/07/13 12:58:47;;;;;;;5.57;1.60;;;33.00;51.90;;;;;;5028247;28;20029;-51